Time;durP1;ratioP1;P1;durP2;ratioP2;P2;SDS_P1;SDS_P2;PMS_P1;PMS_P2;Temp;Humidity;BMP_temperature;BMP_pressure;BME280_temperature;BME280_humidity;BME280_pressure;Samples;Min_cycle;Max_cycle;Signal;HPM_P1;HPM_P2
2022/05/17 00:00:48;;;;;;;4.63;3.03;;;21.00;56.30;;;;;;5070916;28;20052;-73
2022/05/17 00:03:16;;;;;;;3.92;3.08;;;21.00;56.30;;;;;;5071960;28;20048;-73
2022/05/17 00:05:43;;;;;;;7.20;3.20;;;21.00;56.30;;;;;;5071881;28;20058;-73
2022/05/17 00:08:10;;;;;;;3.58;2.85;;;21.00;56.30;;;;;;5090700;28;20539;-73
2022/05/17 00:10:36;;;;;;;5.85;3.00;;;21.00;56.30;;;;;;5091168;28;20400;-73
2022/05/17 00:13:04;;;;;;;4.85;3.00;;;21.10;59.90;;;;;;5091215;28;20052;-73
2022/05/17 00:15:30;;;;;;;4.22;2.70;;;21.00;56.20;;;;;;5091159;28;20052;-73
2022/05/17 00:17:57;;;;;;;3.80;2.70;;;21.70;59.30;;;;;;5091008;28;20412;-73
2022/05/17 00:20:25;;;;;;;4.13;3.00;;;21.00;56.20;;;;;;5089851;28;20149;-73
2022/05/17 00:22:52;;;;;;;4.18;3.00;;;21.00;56.10;;;;;;5092176;28;20432;-73
2022/05/17 00:25:19;;;;;;;6.32;3.30;;;21.00;56.20;;;;;;5091069;28;20404;-73
2022/05/17 00:27:46;;;;;;;5.15;2.80;;;20.90;58.70;;;;;;5125060;27;20056;-73
2022/05/17 00:30:13;;;;;;;4.25;2.70;;;21.00;56.10;;;;;;5091827;28;20052;-73
2022/05/17 00:32:40;;;;;;;4.35;2.95;;;19.80;59.40;;;;;;5090538;28;20058;-73
2022/05/17 00:35:08;;;;;;;3.97;2.80;;;20.90;61.00;;;;;;5072154;28;20056;-73
2022/05/17 00:37:36;;;;;;;4.22;2.90;;;21.00;56.10;;;;;;5070726;28;20084;-73
2022/05/17 00:40:03;;;;;;;5.45;3.20;;;21.00;56.10;;;;;;5070305;28;20067;-74
2022/05/17 00:42:30;;;;;;;4.28;2.85;;;21.00;60.00;;;;;;5070596;28;20052;-72
2022/05/17 00:44:56;;;;;;;5.75;2.95;;;20.90;56.10;;;;;;5070328;28;20052;-72
2022/05/17 00:47:25;;;;;;;5.00;2.60;;;20.90;56.10;;;;;;5076480;28;20051;-73
2022/05/17 00:49:53;;;;;;;5.07;3.10;;;20.90;56.00;;;;;;5090345;28;20504;-73
2022/05/17 00:52:21;;;;;;;6.00;2.83;;;21.20;59.70;;;;;;5090770;28;20047;-72
2022/05/17 00:54:50;;;;;;;3.90;2.92;;;21.00;60.20;;;;;;5090495;28;20044;-72
2022/05/17 00:57:20;;;;;;;4.03;2.88;;;20.80;60.90;;;;;;5090655;28;20054;-73
2022/05/17 00:59:46;;;;;;;4.15;2.70;;;20.90;59.80;;;;;;5090467;28;20511;-72
2022/05/17 01:02:13;;;;;;;5.65;2.83;;;20.90;56.10;;;;;;5107950;28;20052;-73
2022/05/17 01:04:40;;;;;;;3.78;2.63;;;20.90;56.00;;;;;;5073643;28;20053;-73
2022/05/17 01:07:09;;;;;;;3.88;2.65;;;20.90;60.80;;;;;;5074484;28;20054;-72
2022/05/17 01:09:36;;;;;;;4.80;2.85;;;20.70;61.10;;;;;;5074057;28;20052;-73
2022/05/17 01:12:04;;;;;;;5.35;2.75;;;20.80;55.90;;;;;;5075409;28;20536;-72
2022/05/17 01:17:15;;;;;;;3.75;2.42;;;20.90;56.00;;;;;;5075044;28;20044;-72
2022/05/17 01:19:43;;;;;;;4.07;2.50;;;20.80;60.40;;;;;;5073867;28;20056;-72
2022/05/17 01:22:11;;;;;;;3.53;2.72;;;20.80;55.90;;;;;;5073793;28;20072;-73
2022/05/17 01:24:38;;;;;;;5.38;2.83;;;20.20;59.00;;;;;;5085105;28;20052;-73
2022/05/17 01:27:09;;;;;;;4.00;2.40;;;20.80;55.90;;;;;;5094283;28;20055;-72
2022/05/17 01:29:39;;;;;;;3.90;2.58;;;20.00;60.60;;;;;;5093509;28;20135;-73
2022/05/17 01:32:08;;;;;;;3.72;2.50;;;20.50;59.80;;;;;;5093903;28;20044;-73
2022/05/17 01:34:35;;;;;;;5.28;3.00;;;20.80;55.90;;;;;;5128252;27;20082;-73
2022/05/17 01:37:01;;;;;;;3.65;2.63;;;20.80;60.20;;;;;;5093877;28;20420;-72
2022/05/17 01:39:29;;;;;;;3.33;2.17;;;20.80;55.90;;;;;;5073807;28;20063;-73
2022/05/17 01:41:56;;;;;;;4.40;2.60;;;20.80;55.80;;;;;;5073660;28;20048;-73
2022/05/17 01:44:24;;;;;;;3.70;2.50;;;20.80;55.80;;;;;;5073857;28;20059;-72
2022/05/17 01:46:51;;;;;;;3.88;2.40;;;20.70;59.30;;;;;;5073347;28;20044;-73
2022/05/17 01:49:17;;;;;;;3.13;2.50;;;20.70;55.70;;;;;;5073495;28;20503;-73
2022/05/17 01:51:44;;;;;;;6.65;2.78;;;20.60;60.10;;;;;;5080848;28;20081;-73
2022/05/17 01:54:11;;;;;;;4.80;2.30;;;20.70;55.70;;;;;;5093458;28;20058;-73
2022/05/17 01:56:39;;;;;;;3.53;2.53;;;20.80;55.80;;;;;;5093729;28;20078;-72
2022/05/17 01:59:05;;;;;;;3.70;2.42;;;20.70;59.30;;;;;;5093608;28;20056;-73
2022/05/17 02:01:32;;;;;;;4.65;2.25;;;20.70;61.30;;;;;;5093423;28;20047;-72
2022/05/17 02:03:59;;;;;;;3.47;2.58;;;20.30;59.40;;;;;;5094482;28;20067;-73
2022/05/17 02:06:26;;;;;;;3.47;2.40;;;20.70;55.70;;;;;;5077034;28;20210;-72
2022/05/17 02:08:52;;;;;;;3.25;2.17;;;20.70;55.70;;;;;;5073082;28;20135;-72
2022/05/17 02:11:19;;;;;;;4.03;2.25;;;20.70;60.70;;;;;;5073067;28;20144;-72
2022/05/17 02:13:47;;;;;;;3.28;2.50;;;20.70;55.70;;;;;;5107038;28;20083;-72
2022/05/17 02:16:14;;;;;;;3.78;2.28;;;20.70;55.70;;;;;;5072489;28;20060;-72
2022/05/17 02:18:41;;;;;;;3.85;2.20;;;20.70;55.70;;;;;;5076325;28;20079;-72
2022/05/17 02:21:07;;;;;;;3.13;2.38;;;20.80;59.80;;;;;;5092970;28;20083;-72
2022/05/17 02:23:34;;;;;;;4.82;2.58;;;20.70;55.70;;;;;;5092982;28;20051;-73
2022/05/17 02:26:01;;;;;;;4.05;2.45;;;20.10;60.30;;;;;;5093247;28;20052;-73
2022/05/17 02:28:28;;;;;;;3.20;2.20;;;20.70;55.70;;;;;;5093119;28;20048;-72
2022/05/17 02:30:56;;;;;;;4.63;2.47;;;20.70;60.50;;;;;;5092503;28;20052;-73
2022/05/17 02:33:23;;;;;;;3.53;2.00;;;20.80;59.90;;;;;;5080242;28;20054;-72
2022/05/17 02:35:49;;;;;;;3.25;2.20;;;20.60;55.70;;;;;;5072625;28;20056;-72
2022/05/17 02:38:16;;;;;;;4.57;2.40;;;20.60;55.70;;;;;;5072722;28;20082;-72
2022/05/17 02:40:44;;;;;;;2.45;1.80;;;21.40;60.10;;;;;;5072133;28;20058;-72
2022/05/17 02:43:12;;;;;;;4.97;2.20;;;20.60;55.70;;;;;;5072330;28;20048;-72
2022/05/17 02:45:39;;;;;;;4.50;2.40;;;20.60;55.70;;;;;;5072712;28;20049;-72
2022/05/17 02:48:07;;;;;;;3.20;2.20;;;20.70;60.30;;;;;;5093721;28;20060;-72
2022/05/17 02:50:34;;;;;;;4.55;2.50;;;20.60;55.60;;;;;;5126778;27;20078;-73
2022/05/17 02:53:01;;;;;;;3.63;2.20;;;20.90;59.40;;;;;;5092624;28;20055;-72
2022/05/17 02:55:27;;;;;;;4.70;2.10;;;20.70;60.70;;;;;;5079817;28;20059;-72
2022/05/17 02:57:54;;;;;;;3.20;2.30;;;20.30;59.20;;;;;;5088592;28;20047;-73
2022/05/17 03:00:21;;;;;;;3.75;2.30;;;20.60;55.70;;;;;;5092283;28;20143;-72
2022/05/17 03:02:48;;;;;;;3.83;2.15;;;20.60;55.70;;;;;;5093384;28;20544;-72
2022/05/17 03:05:16;;;;;;;5.30;2.20;;;20.60;55.70;;;;;;5092404;28;20055;-73
2022/05/17 03:07:43;;;;;;;3.17;2.20;;;20.50;59.20;;;;;;5092310;28;20409;-72
2022/05/17 03:10:10;;;;;;;2.88;2.20;;;20.50;60.00;;;;;;5086836;28;20052;-72
2022/05/17 03:12:37;;;;;;;3.13;2.42;;;20.50;55.60;;;;;;5072056;28;20048;-72
2022/05/17 03:15:04;;;;;;;3.28;2.33;;;20.50;55.60;;;;;;5071916;28;20052;-72
2022/05/17 03:17:31;;;;;;;4.25;2.33;;;20.50;55.60;;;;;;5071609;28;20058;-73
2022/05/17 03:19:58;;;;;;;3.28;2.10;;;20.20;59.00;;;;;;5071579;28;20476;-73
2022/05/17 03:22:26;;;;;;;3.72;2.17;;;20.90;61.20;;;;;;5071797;28;20054;-73
2022/05/17 03:24:53;;;;;;;4.97;2.25;;;20.50;55.60;;;;;;5071736;28;20110;-72
2022/05/17 03:27:19;;;;;;;3.55;2.28;;;20.50;55.70;;;;;;5071728;28;20486;-73
2022/05/17 03:29:46;;;;;;;3.63;1.98;;;20.60;60.10;;;;;;5071402;28;20080;-72
2022/05/17 03:32:13;;;;;;;4.53;2.58;;;20.50;60.80;;;;;;5071502;28;20138;-72
2022/05/17 03:34:39;;;;;;;3.53;2.17;;;20.50;55.70;;;;;;5071649;28;20075;-73
2022/05/17 03:37:06;;;;;;;4.80;2.20;;;20.50;59.40;;;;;;5071021;28;20044;-72
2022/05/17 03:39:35;;;;;;;2.90;2.10;;;20.50;55.70;;;;;;5105223;28;20052;-73
2022/05/17 03:42:01;;;;;;;3.97;2.20;;;20.50;55.70;;;;;;5071391;28;20056;-72
2022/05/17 03:44:28;;;;;;;3.15;2.38;;;20.40;55.70;;;;;;5072006;28;20055;-72
2022/05/17 03:46:55;;;;;;;3.17;2.17;;;20.50;61.30;;;;;;5071260;28;20060;-72
2022/05/17 03:49:21;;;;;;;3.15;2.30;;;20.40;55.60;;;;;;5071210;28;20052;-73
2022/05/17 03:51:48;;;;;;;3.95;2.15;;;20.40;55.70;;;;;;5071084;28;20052;-72
2022/05/17 03:54:18;;;;;;;3.78;2.30;;;20.20;59.80;;;;;;5072317;28;20060;-72
2022/05/17 03:56:46;;;;;;;3.25;2.10;;;20.40;55.70;;;;;;5071095;28;20064;-72
2022/05/17 03:59:12;;;;;;;4.97;2.20;;;20.40;55.70;;;;;;5071972;28;20431;-72
2022/05/17 04:01:39;;;;;;;3.10;2.28;;;20.40;60.30;;;;;;5070616;28;20048;-72
2022/05/17 04:04:06;;;;;;;4.65;2.42;;;20.40;55.70;;;;;;5070745;28;20066;-73
2022/05/17 04:06:32;;;;;;;4.85;2.50;;;20.10;59.60;;;;;;5071106;28;20135;-72
2022/05/17 04:08:59;;;;;;;3.13;2.10;;;21.60;60.80;;;;;;5070822;28;20062;-72
2022/05/17 04:11:26;;;;;;;3.80;2.30;;;20.40;55.70;;;;;;5070518;28;20132;-73
2022/05/17 04:13:54;;;;;;;4.25;2.47;;;20.40;55.70;;;;;;5104481;28;20049;-73
2022/05/17 04:16:21;;;;;;;3.13;2.22;;;20.40;55.70;;;;;;5087420;28;20060;-72
2022/05/17 04:18:48;;;;;;;3.00;2.20;;;20.10;59.60;;;;;;5091040;28;20043;-72
2022/05/17 04:21:14;;;;;;;3.88;2.20;;;20.40;55.70;;;;;;5090584;28;20044;-72
2022/05/17 04:23:41;;;;;;;4.15;2.30;;;20.30;55.70;;;;;;5090757;28;20048;-73
2022/05/17 04:26:08;;;;;;;2.75;1.98;;;20.30;61.00;;;;;;5091842;28;20084;-72
2022/05/17 04:28:35;;;;;;;4.50;2.30;;;20.30;55.70;;;;;;5090765;28;20083;-73
2022/05/17 04:31:06;;;;;;;4.15;2.38;;;20.30;55.70;;;;;;5089874;28;20395;-73
2022/05/17 04:33:33;;;;;;;4.18;2.15;;;20.30;55.70;;;;;;5090955;28;20066;-72
2022/05/17 04:35:59;;;;;;;3.50;2.42;;;20.30;59.40;;;;;;5090903;28;20094;-72
2022/05/17 04:38:26;;;;;;;4.78;2.47;;;20.20;60.90;;;;;;5090283;28;20062;-72
2022/05/17 04:40:53;;;;;;;3.88;2.30;;;20.30;55.80;;;;;;5090315;28;20044;-73
2022/05/17 04:43:19;;;;;;;3.72;2.28;;;20.30;55.70;;;;;;5090624;28;20131;-72
2022/05/17 04:45:46;;;;;;;3.47;2.10;;;20.00;60.20;;;;;;5090824;28;20081;-72
2022/05/17 04:48:14;;;;;;;2.95;2.05;;;20.30;55.80;;;;;;5080206;28;20057;-74
2022/05/17 04:50:41;;;;;;;3.60;2.20;;;20.50;60.40;;;;;;5070357;28;20060;-73
2022/05/17 04:53:08;;;;;;;2.38;1.85;;;20.20;59.50;;;;;;5070207;28;20048;-72
2022/05/17 04:55:34;;;;;;;3.65;2.20;;;20.10;60.00;;;;;;5104283;28;20078;-72
2022/05/17 04:58:01;;;;;;;4.22;2.35;;;19.80;58.50;;;;;;5070397;28;20048;-72
2022/05/17 05:00:28;;;;;;;4.25;2.30;;;20.40;55.60;;;;;;5071469;28;20070;-73
2022/05/17 05:02:54;;;;;;;3.53;2.33;;;20.40;60.30;;;;;;5104204;28;20416;-72
2022/05/17 05:05:23;;;;;;;4.35;2.38;;;20.50;55.50;;;;;;5088421;28;20052;-73
2022/05/17 05:07:50;;;;;;;3.35;2.13;;;20.50;59.20;;;;;;5090512;28;20083;-72
2022/05/17 05:10:16;;;;;;;3.92;2.25;;;20.30;59.80;;;;;;5090194;28;20068;-72
2022/05/17 05:12:43;;;;;;;3.22;2.20;;;20.40;55.50;;;;;;5090710;28;20060;-72
2022/05/17 05:15:11;;;;;;;3.35;2.00;;;20.40;55.50;;;;;;5090112;28;20052;-73
2022/05/17 05:17:38;;;;;;;4.65;2.03;;;20.90;59.40;;;;;;5123840;28;20044;-74
2022/05/17 05:20:05;;;;;;;3.55;2.00;;;20.40;55.60;;;;;;5083877;28;20060;-73
2022/05/17 05:22:34;;;;;;;5.65;2.10;;;20.40;55.60;;;;;;5104259;28;20057;-73
2022/05/17 05:25:01;;;;;;;4.25;2.20;;;20.40;55.70;;;;;;5070098;28;20401;-73
2022/05/17 05:27:31;;;;;;;5.22;2.22;;;20.80;61.10;;;;;;5070664;28;20055;-73
2022/05/17 05:29:58;;;;;;;3.25;1.95;;;20.40;55.60;;;;;;5053051;28;20059;-74
2022/05/17 05:32:25;;;;;;;2.15;1.67;;;20.50;60.10;;;;;;5070125;28;20056;-74
2022/05/17 05:34:52;;;;;;;5.40;2.38;;;20.40;55.60;;;;;;5104175;28;20140;-73
2022/05/17 05:37:19;;;;;;;3.40;2.00;;;20.40;55.60;;;;;;5084209;28;20060;-73
2022/05/17 05:39:47;;;;;;;7.28;2.83;;;20.40;55.70;;;;;;5097910;28;20051;-73
2022/05/17 05:42:13;;;;;;;6.57;2.20;;;20.50;55.90;;;;;;5096863;28;20055;-73
2022/05/17 05:44:40;;;;;;;3.58;1.95;;;20.50;56.00;;;;;;5099648;28;20044;-73
2022/05/17 05:47:07;;;;;;;5.97;2.25;;;20.50;56.00;;;;;;5101132;28;20051;-73
2022/05/17 05:49:33;;;;;;;3.95;2.00;;;20.60;59.60;;;;;;5101020;28;20127;-73
2022/05/17 05:52:00;;;;;;;4.47;2.08;;;20.50;56.00;;;;;;5101937;28;20469;-73
2022/05/17 05:54:27;;;;;;;5.10;2.20;;;20.50;60.40;;;;;;5100188;28;20047;-73
2022/05/17 05:56:59;;;;;;;4.90;2.10;;;20.60;56.10;;;;;;5104747;28;20051;-73
2022/05/17 05:59:28;;;;;;;3.95;2.17;;;20.50;59.50;;;;;;5112496;28;20393;-73
2022/05/17 06:01:55;;;;;;;5.03;1.98;;;20.60;56.00;;;;;;5115058;28;20043;-73
2022/05/17 06:04:21;;;;;;;3.75;2.08;;;20.60;55.90;;;;;;5114049;28;20073;-73
2022/05/17 06:06:48;;;;;;;5.75;2.03;;;20.50;60.00;;;;;;5114158;28;20051;-73
2022/05/17 06:09:15;;;;;;;4.68;2.10;;;20.70;55.90;;;;;;5093344;28;20076;-73
2022/05/17 06:11:41;;;;;;;8.57;2.50;;;20.50;59.80;;;;;;5073149;28;20052;-73
2022/05/17 06:14:12;;;;;;;6.45;2.22;;;20.80;55.90;;;;;;5074475;28;20413;-73
2022/05/17 06:16:38;;;;;;;5.55;2.63;;;21.90;61.20;;;;;;5072821;28;20060;-73
2022/05/17 06:19:05;;;;;;;15.02;5.78;;;21.00;55.70;;;;;;5073279;28;20060;-73
2022/05/17 06:21:32;;;;;;;23.38;7.75;;;21.10;55.30;;;;;;5072932;28;20091;-73
2022/05/17 06:23:59;;;;;;;16.77;6.63;;;21.20;55.00;;;;;;5092250;28;20500;-73
2022/05/17 06:26:26;;;;;;;19.83;6.47;;;21.30;54.80;;;;;;5108434;28;20052;-73
2022/05/17 06:28:52;;;;;;;22.10;6.45;;;21.50;59.60;;;;;;5093253;28;20062;-73
2022/05/17 06:31:20;;;;;;;24.67;7.50;;;21.50;54.70;;;;;;5092951;28;20386;-73
2022/05/17 06:33:47;;;;;;;23.70;7.63;;;21.50;54.50;;;;;;5094568;28;20048;-73
2022/05/17 06:36:14;;;;;;;26.08;8.20;;;21.60;54.50;;;;;;5093203;28;20064;-73
2022/05/17 06:38:41;;;;;;;20.45;6.47;;;21.70;54.40;;;;;;5092755;28;20499;-73
2022/05/17 06:41:07;;;;;;;21.80;7.50;;;21.90;59.40;;;;;;5092500;28;20078;-73
2022/05/17 06:43:34;;;;;;;39.53;11.95;;;21.80;54.10;;;;;;5092827;28;20059;-73
2022/05/17 06:46:01;;;;;;;29.40;10.18;;;22.00;58.40;;;;;;5092747;28;20412;-73
2022/05/17 06:48:29;;;;;;;34.33;11.75;;;21.90;54.10;;;;;;5092720;28;20060;-73
2022/05/17 06:51:01;;;;;;;28.40;9.85;;;22.00;54.00;;;;;;5092751;28;20070;-73
2022/05/17 06:53:30;;;;;;;33.50;9.45;;;22.10;53.90;;;;;;5093585;28;20058;-73
2022/05/17 06:55:56;;;;;;;27.65;8.88;;;22.10;53.90;;;;;;5093767;28;20048;-72
2022/05/17 06:58:23;;;;;;;33.05;9.00;;;22.20;53.80;;;;;;5124840;27;20056;-73
2022/05/17 07:00:50;;;;;;;28.55;8.75;;;22.20;53.70;;;;;;5092145;28;20135;-73
2022/05/17 07:03:17;;;;;;;22.92;7.82;;;22.30;53.60;;;;;;5092660;28;20060;-73
2022/05/17 07:05:45;;;;;;;21.25;7.65;;;22.60;58.50;;;;;;5093401;28;20138;-73
2022/05/17 07:08:11;;;;;;;23.52;8.15;;;22.40;58.10;;;;;;5093626;28;20185;-72
2022/05/17 07:13:23;;;;;;;20.63;6.68;;;21.70;58.10;;;;;;5105938;28;20056;-73
2022/05/17 07:15:51;;;;;;;18.05;6.82;;;22.60;53.10;;;;;;5072137;28;20056;-73
2022/05/17 07:18:19;;;;;;;19.92;6.68;;;22.70;53.10;;;;;;5054110;28;20059;-73
2022/05/17 07:20:47;;;;;;;15.52;5.90;;;22.70;53.00;;;;;;5072581;28;20048;-73
2022/05/17 07:23:14;;;;;;;17.90;6.22;;;22.80;52.90;;;;;;5072069;28;20048;-72
2022/05/17 07:25:41;;;;;;;14.82;5.63;;;23.00;57.60;;;;;;5071544;28;20040;-73
2022/05/17 07:28:08;;;;;;;16.88;5.90;;;22.90;52.80;;;;;;5082745;28;20052;-73
2022/05/17 07:30:34;;;;;;;16.48;5.80;;;23.00;58.40;;;;;;5091567;28;20048;-73
2022/05/17 07:33:01;;;;;;;15.05;5.65;;;22.80;55.90;;;;;;5093040;28;20055;-73
2022/05/17 07:35:28;;;;;;;15.60;5.60;;;23.00;52.60;;;;;;5088345;28;20114;-73
2022/05/17 07:37:56;;;;;;;15.98;6.25;;;23.10;55.70;;;;;;5072578;28;20401;-73
2022/05/17 07:40:23;;;;;;;14.35;5.47;;;23.10;57.60;;;;;;5072306;28;20049;-73
2022/05/17 07:42:50;;;;;;;11.98;5.13;;;23.10;52.40;;;;;;5105216;28;20052;-73
2022/05/17 07:45:16;;;;;;;14.93;4.70;;;23.30;56.10;;;;;;5119083;27;20052;-73
2022/05/17 07:47:43;;;;;;;14.95;5.20;;;23.10;52.20;;;;;;5091093;28;20424;-73
2022/05/17 07:50:10;;;;;;;13.40;5.18;;;23.20;52.20;;;;;;5089338;28;20058;-73
2022/05/17 07:52:38;;;;;;;13.35;4.93;;;23.30;57.40;;;;;;5090037;28;20556;-73
2022/05/17 07:55:08;;;;;;;13.77;4.97;;;24.30;57.30;;;;;;5091807;28;20060;-73
2022/05/17 07:57:34;;;;;;;11.75;5.10;;;23.20;52.10;;;;;;5091894;28;20048;-73
2022/05/17 08:00:05;;;;;;;15.18;4.70;;;23.30;52.10;;;;;;5090132;28;20401;-73
2022/05/17 08:02:32;;;;;;;12.88;5.10;;;23.30;52.10;;;;;;5125636;27;20052;-73
2022/05/17 08:04:58;;;;;;;11.98;4.88;;;23.30;52.00;;;;;;5124717;27;20060;-73
2022/05/17 08:07:25;;;;;;;11.30;3.95;;;23.60;56.10;;;;;;5091408;28;20062;-73
2022/05/17 08:09:52;;;;;;;8.35;3.72;;;23.40;51.90;;;;;;5092139;28;20054;-73
2022/05/17 08:12:20;;;;;;;8.52;3.80;;;23.50;51.90;;;;;;5090469;28;20064;-73
2022/05/17 08:14:48;;;;;;;7.97;3.65;;;23.50;53.10;;;;;;5090723;28;20054;-73
2022/05/17 08:17:14;;;;;;;11.55;3.72;;;23.50;53.20;;;;;;5092291;28;20044;-73
2022/05/17 08:19:41;;;;;;;10.55;3.58;;;23.40;56.10;;;;;;5090768;28;20408;-73
2022/05/17 08:22:12;;;;;;;9.57;3.42;;;23.50;53.10;;;;;;5092357;28;20044;-73
2022/05/17 08:27:36;;;;;;;8.55;3.30;;;23.50;52.70;;;;;;5090055;28;20048;-73
2022/05/17 08:30:06;;;;;;;8.40;3.05;;;23.50;52.60;;;;;;5090868;28;20082;-73
2022/05/17 08:35:17;;;;;;;7.85;2.70;;;23.60;52.40;;;;;;5125049;27;20043;-73
2022/05/17 08:37:43;;;;;;;7.68;2.92;;;23.50;52.20;;;;;;5090265;28;20047;-73
2022/05/17 08:40:13;;;;;;;7.10;2.80;;;23.60;56.50;;;;;;5084886;28;20067;-74
2022/05/17 08:42:44;;;;;;;6.25;2.85;;;23.60;52.10;;;;;;5070612;28;20409;-73
2022/05/17 08:45:16;;;;;;;7.03;2.72;;;23.60;52.10;;;;;;5053876;28;20044;-73
2022/05/17 08:47:45;;;;;;;7.22;2.95;;;23.60;52.10;;;;;;5070398;28;20056;-73
2022/05/17 08:50:15;;;;;;;10.50;2.72;;;23.60;52.10;;;;;;5070612;28;20052;-73
2022/05/17 08:52:41;;;;;;;6.80;2.97;;;23.60;52.10;;;;;;5070543;28;20052;-73
2022/05/17 08:55:13;;;;;;;6.18;2.80;;;23.50;52.00;;;;;;5070602;28;20101;-73
2022/05/17 08:57:44;;;;;;;9.18;2.83;;;23.60;52.10;;;;;;5071543;28;20053;-73
2022/05/17 09:00:15;;;;;;;7.70;2.75;;;23.60;52.10;;;;;;5070213;28;20052;-73
2022/05/17 09:02:43;;;;;;;5.70;2.30;;;23.60;52.00;;;;;;5070427;28;20061;-73
2022/05/17 09:05:14;;;;;;;5.03;2.63;;;23.60;52.00;;;;;;5070129;28;20053;-73
2022/05/17 09:07:46;;;;;;;5.78;2.50;;;23.80;56.10;;;;;;5070198;28;20060;-73
2022/05/17 09:10:18;;;;;;;4.90;2.53;;;23.60;52.00;;;;;;5069763;28;20402;-73
2022/05/17 09:12:49;;;;;;;4.10;2.33;;;23.60;52.00;;;;;;5071655;28;20137;-73
2022/05/17 09:15:16;;;;;;;7.97;2.63;;;23.60;52.00;;;;;;5069778;28;20045;-73
2022/05/17 09:17:44;;;;;;;7.65;2.50;;;23.60;52.00;;;;;;5071419;28;20082;-73
2022/05/17 09:20:13;;;;;;;5.63;2.50;;;23.60;52.00;;;;;;5122091;28;20056;-73
2022/05/17 09:22:40;;;;;;;7.10;2.88;;;23.60;52.00;;;;;;5099433;28;20051;-73
2022/05/17 09:25:15;;;;;;;4.15;2.13;;;23.60;52.00;;;;;;5103397;28;20127;-73
2022/05/17 09:27:41;;;;;;;4.75;2.40;;;24.00;57.00;;;;;;5102722;28;20052;-73
2022/05/17 09:30:12;;;;;;;10.32;2.40;;;23.50;52.10;;;;;;5094068;28;20404;-73
2022/05/17 09:32:42;;;;;;;6.15;2.53;;;23.50;52.00;;;;;;5127079;27;20166;-73
2022/05/17 09:35:10;;;;;;;4.07;2.15;;;23.50;52.10;;;;;;5092758;28;20056;-73
2022/05/17 09:37:38;;;;;;;4.80;2.50;;;22.60;56.20;;;;;;5093855;28;20055;-73
2022/05/17 09:40:07;;;;;;;3.63;1.92;;;23.50;52.10;;;;;;5126639;27;20074;-72
2022/05/17 09:42:34;;;;;;;5.30;2.20;;;23.50;52.10;;;;;;5126622;27;20052;-72
2022/05/17 09:45:02;;;;;;;4.07;2.30;;;23.50;52.10;;;;;;5092207;28;20040;-73
2022/05/17 09:47:31;;;;;;;4.78;2.15;;;23.50;52.10;;;;;;5093327;28;20087;-73
2022/05/17 09:52:45;;;;;;;4.63;2.53;;;23.60;55.20;;;;;;5128183;27;20153;-73
2022/05/17 09:55:22;;;;;;;6.68;2.60;;;23.50;52.30;;;;;;5127808;27;20048;-73
2022/05/17 09:57:53;;;;;;;8.00;2.40;;;23.30;54.00;;;;;;5093801;28;20063;-73
2022/05/17 10:00:23;;;;;;;7.93;2.75;;;23.70;56.30;;;;;;5091848;28;20237;-74
2022/05/17 10:02:55;;;;;;;6.68;1.98;;;23.50;55.90;;;;;;5127723;27;20080;-74
2022/05/17 10:05:24;;;;;;;5.32;2.30;;;23.50;52.60;;;;;;5093662;28;20093;-74
2022/05/17 10:07:58;;;;;;;5.95;2.00;;;23.70;54.50;;;;;;5093643;28;20515;-74
2022/05/17 10:10:33;;;;;;;10.45;2.20;;;23.50;56.20;;;;;;5093213;28;20043;-74
2022/05/17 10:13:16;;;;;;;9.35;2.53;;;23.50;52.70;;;;;;5093638;28;20513;-74
2022/05/17 10:15:44;;;;;;;4.25;1.95;;;23.30;56.30;;;;;;5092227;28;20126;-74
2022/05/17 10:18:26;;;;;;;7.47;2.20;;;23.20;55.90;;;;;;5072882;28;20048;-74
2022/05/17 10:20:53;;;;;;;6.30;2.22;;;23.50;53.00;;;;;;5072953;28;20053;-74
2022/05/17 10:23:26;;;;;;;6.22;2.28;;;23.50;53.20;;;;;;5074014;28;20496;-74
2022/05/17 10:25:54;;;;;;;8.07;1.95;;;23.50;53.10;;;;;;5072645;28;20053;-74
2022/05/17 10:28:24;;;;;;;5.70;2.42;;;23.50;56.50;;;;;;5106816;28;20512;-74
2022/05/17 10:30:52;;;;;;;10.55;2.30;;;23.60;53.30;;;;;;5072848;28;20048;-74
2022/05/17 10:33:23;;;;;;;7.20;2.00;;;23.60;53.20;;;;;;5074117;28;20056;-74
2022/05/17 10:35:53;;;;;;;3.30;1.90;;;23.60;53.10;;;;;;5072185;28;20412;-74
2022/05/17 10:38:21;;;;;;;6.68;1.92;;;23.60;53.10;;;;;;5073838;28;20057;-75
2022/05/17 10:40:51;;;;;;;6.82;2.17;;;23.50;53.00;;;;;;5072489;28;20060;-73
2022/05/17 10:43:21;;;;;;;5.32;2.20;;;23.90;57.10;;;;;;5071659;28;20056;-74
2022/05/17 10:45:56;;;;;;;6.25;1.67;;;23.60;53.00;;;;;;5072439;28;20054;-73
2022/05/17 10:48:27;;;;;;;6.00;1.88;;;23.60;52.90;;;;;;5073572;28;20547;-73
2022/05/17 10:50:58;;;;;;;5.85;2.17;;;23.20;57.10;;;;;;5072297;28;20061;-73
2022/05/17 10:53:36;;;;;;;4.43;1.77;;;23.60;52.80;;;;;;5089496;28;20067;-73
2022/05/17 10:56:07;;;;;;;3.42;1.65;;;23.60;52.70;;;;;;5072170;28;20059;-73
2022/05/17 10:58:39;;;;;;;4.18;1.70;;;23.60;52.70;;;;;;5072270;28;20441;-73
2022/05/17 11:01:09;;;;;;;3.47;1.80;;;23.60;52.70;;;;;;5072284;28;20127;-74
2022/05/17 11:04:12;;;;;;;3.97;1.80;;;23.20;56.00;;;;;;5072164;28;20052;-73
2022/05/17 11:06:41;;;;;;;4.40;1.65;;;23.70;52.60;;;;;;5089049;28;20378;-73
2022/05/17 11:09:11;;;;;;;3.30;1.67;;;23.60;52.60;;;;;;5092280;28;20055;-73
2022/05/17 11:12:09;;;;;;;5.07;1.75;;;23.70;52.60;;;;;;5092254;28;20507;-74
2022/05/17 11:14:41;;;;;;;4.00;1.60;;;23.70;56.50;;;;;;5088452;28;20459;-73
2022/05/17 11:17:13;;;;;;;2.97;1.50;;;23.60;52.60;;;;;;5092107;28;20044;-73
2022/05/17 11:19:42;;;;;;;4.43;1.90;;;23.60;52.60;;;;;;5080959;28;20064;-73
2022/05/17 11:22:13;;;;;;;5.80;1.95;;;23.60;52.60;;;;;;5072975;28;20131;-73
2022/05/17 11:25:00;;;;;;;2.53;1.50;;;23.60;52.60;;;;;;5072065;28;20087;-73
2022/05/17 11:27:54;;;;;;;3.15;1.52;;;23.60;52.50;;;;;;5071911;28;20052;-73
2022/05/17 11:30:21;;;;;;;3.42;1.60;;;23.60;52.60;;;;;;5071528;28;20048;-73
2022/05/17 11:33:12;;;;;;;4.70;1.67;;;23.60;52.60;;;;;;5105408;28;20054;-73
2022/05/17 11:35:49;;;;;;;3.17;1.77;;;23.60;52.60;;;;;;5106854;27;20052;-73
2022/05/17 11:38:19;;;;;;;3.38;1.60;;;23.60;52.60;;;;;;5071646;28;20062;-73
2022/05/17 11:40:56;;;;;;;3.88;1.65;;;23.60;52.60;;;;;;5071517;28;20139;-73
2022/05/17 11:43:42;;;;;;;4.47;1.75;;;23.60;57.50;;;;;;5071476;28;20068;-73
2022/05/17 11:46:43;;;;;;;4.07;1.88;;;23.60;52.60;;;;;;5071531;28;20440;-74
2022/05/17 11:49:41;;;;;;;3.35;1.60;;;23.60;52.50;;;;;;5053526;28;20056;-73
2022/05/17 11:52:26;;;;;;;3.15;1.70;;;23.60;52.50;;;;;;5106529;27;20059;-73
2022/05/17 11:54:54;;;;;;;4.32;1.35;;;23.40;57.30;;;;;;5054430;28;20056;-73
2022/05/17 11:58:08;;;;;;;3.78;1.70;;;23.60;52.50;;;;;;5071378;28;20053;-73
2022/05/17 12:00:48;;;;;;;2.50;1.45;;;23.60;52.40;;;;;;5070917;28;20118;-74
2022/05/17 12:03:40;;;;;;;3.72;1.60;;;23.60;52.50;;;;;;5071435;28;20400;-74
2022/05/17 12:06:10;;;;;;;3.58;1.58;;;23.60;52.50;;;;;;5070960;28;20048;-74
2022/05/17 12:08:43;;;;;;;2.45;1.42;;;23.60;52.60;;;;;;5081967;28;20074;-74
2022/05/17 12:11:17;;;;;;;3.55;1.40;;;23.60;52.60;;;;;;5083282;28;20056;-74
2022/05/17 12:13:46;;;;;;;3.85;1.80;;;23.50;56.30;;;;;;5070916;28;20482;-74
2022/05/17 12:16:16;;;;;;;5.05;1.83;;;23.60;52.80;;;;;;5070339;28;20496;-74
2022/05/17 12:18:44;;;;;;;1.90;1.40;;;23.60;52.80;;;;;;5070586;28;20106;-74
2022/05/17 12:21:31;;;;;;;2.78;1.48;;;23.60;52.80;;;;;;5070545;28;20048;-74
2022/05/17 12:24:06;;;;;;;1.63;1.38;;;23.60;56.10;;;;;;5075801;28;20058;-74
2022/05/17 12:26:45;;;;;;;3.33;1.50;;;23.60;52.70;;;;;;5080080;28;20056;-74
2022/05/17 12:31:59;;;;;;;2.00;1.30;;;23.60;52.70;;;;;;5071921;28;20071;-74
2022/05/17 12:34:25;;;;;;;3.80;1.73;;;23.60;52.70;;;;;;5070829;28;20052;-75
2022/05/17 12:36:52;;;;;;;3.35;1.70;;;23.60;55.70;;;;;;5070936;28;20496;-76
2022/05/17 12:44:52;;;;;;;2.90;1.40;;;23.60;52.70;;;;;;5033225;28;20409;-75
2022/05/17 12:47:21;;;;;;;6.65;1.83;;;23.60;52.70;;;;;;5124882;28;20067;-74
2022/05/17 12:49:52;;;;;;;14.45;2.13;;;23.60;52.70;;;;;;5070438;28;20056;-74
2022/05/17 12:52:22;;;;;;;8.52;1.65;;;23.60;52.70;;;;;;5086832;28;20060;-74
2022/05/17 12:54:50;;;;;;;5.22;1.45;;;23.70;52.80;;;;;;5079042;28;20167;-74
2022/05/17 12:57:19;;;;;;;3.00;1.52;;;23.70;52.90;;;;;;5070558;28;20041;-74
2022/05/17 12:59:45;;;;;;;5.93;1.60;;;23.70;53.00;;;;;;5072186;28;20139;-74
2022/05/17 13:02:12;;;;;;;3.45;1.40;;;23.80;53.20;;;;;;5074867;28;20064;-74
2022/05/17 13:04:39;;;;;;;3.90;1.50;;;23.90;55.90;;;;;;5075291;28;20408;-74
2022/05/17 13:07:13;;;;;;;3.13;1.35;;;23.90;53.10;;;;;;5076652;28;20135;-74
2022/05/17 13:09:53;;;;;;;3.03;1.25;;;23.90;53.10;;;;;;5086767;28;20131;-73
2022/05/17 13:12:20;;;;;;;3.78;1.33;;;23.90;53.10;;;;;;5091413;28;20058;-74
2022/05/17 13:14:49;;;;;;;4.57;1.70;;;23.90;53.10;;;;;;5095842;28;20044;-74
2022/05/17 13:17:18;;;;;;;4.03;1.35;;;24.20;57.10;;;;;;5093469;28;20117;-74